Berkshire Heights, Massachusetts
Current Conditions -  °F | °C
As of 3:29 AM on Thursday 18 Dec 2014 (Local Time) from KPSF Reporting Station
Light Snow Light Snow  
Wind Chill: 20°   Ceiling: 1400
Heat Index: 31°   Visibility: 1.7mi
Dew Point: 29°   Wind: 16mph
Humidity: 92%   Direction: 290°WNW
Pressure: 29.77"   Gusts: 26mph
Location:  42.1779°N, 73.3332°W
Report Text: KPSF 180829Z AUTO 29014G23KT 1 3/4SM -SN BR SCT010 BKN014 OVC022 M01/M02 A2977 RMK AO2 P0000 T10061017
Loading
Personal Weather Stations






























Interactive Weather Map New forecast layout! Learn more

10-Day Weather Forecast

Advertisements
Track Severe Weather on mobile